createdAt,value
2019-01-04T00:00:33.985Z,15.22
2019-01-04T00:01:33.881Z,15.29
2019-01-04T00:02:33.878Z,15.30
2019-01-04T00:03:33.856Z,15.25
2019-01-04T00:04:33.847Z,15.19
2019-01-04T00:05:33.837Z,15.32
2019-01-04T00:06:34.032Z,15.23
2019-01-04T00:07:33.823Z,15.23
2019-01-04T00:08:33.802Z,15.23
2019-01-04T00:09:33.796Z,15.23
2019-01-04T00:10:33.788Z,15.29
2019-01-04T00:11:33.772Z,15.25
2019-01-04T00:12:33.865Z,15.26
2019-01-04T00:13:33.789Z,15.25
2019-01-04T00:14:33.908Z,15.23
2019-01-04T00:15:33.731Z,15.19
2019-01-04T00:16:33.870Z,15.29
2019-01-04T00:17:33.707Z,15.19
2019-01-04T00:18:33.789Z,15.26
2019-01-04T00:19:33.687Z,15.12
2019-01-04T00:20:33.674Z,15.17
2019-01-04T00:21:33.667Z,15.08
2019-01-04T00:22:33.650Z,15.17
2019-01-04T00:23:33.643Z,15.08
2019-01-04T00:24:33.799Z,15.23
2019-01-04T00:25:33.624Z,15.14
2019-01-04T00:26:33.612Z,15.10
2019-01-04T00:27:33.596Z,15.12
2019-01-04T00:28:33.586Z,15.12
2019-01-04T00:29:33.580Z,15.14
2019-01-04T00:30:33.664Z,15.15
2019-01-04T00:31:33.556Z,15.22
2019-01-04T00:32:33.547Z,15.14
2019-01-04T00:33:33.535Z,15.11
2019-01-04T00:34:33.524Z,15.11
2019-01-04T00:35:33.510Z,15.12
2019-01-04T00:36:33.598Z,15.19
2019-01-04T00:37:33.497Z,15.08
2019-01-04T00:38:33.478Z,15.10
2019-01-04T00:39:33.473Z,15.22
2019-01-04T00:40:33.471Z,15.18
2019-01-04T00:41:33.447Z,15.18
2019-01-04T00:42:33.602Z,15.08
2019-01-04T00:43:33.425Z,15.11
2019-01-04T00:44:33.414Z,15.18
2019-01-04T00:45:33.409Z,15.14
2019-01-04T00:46:33.390Z,15.14
2019-01-04T00:47:33.383Z,15.10
2019-01-04T00:48:33.466Z,15.17
2019-01-04T00:49:33.361Z,15.10
2019-01-04T00:50:33.351Z,15.19
2019-01-04T00:51:33.346Z,15.14
2019-01-04T00:52:33.325Z,15.12
2019-01-04T00:53:33.316Z,15.14
2019-01-04T00:54:33.406Z,15.08
2019-01-04T00:55:33.298Z,15.14
2019-01-04T00:56:33.292Z,15.10
2019-01-04T00:57:33.274Z,15.12
2019-01-04T00:58:33.264Z,15.14
2019-01-04T00:59:33.311Z,15.07
2019-01-04T01:00:33.642Z,15.10
2019-01-04T01:01:33.234Z,15.17
2019-01-04T01:02:33.224Z,15.12
2019-01-04T01:03:33.212Z,15.17
2019-01-04T01:04:33.203Z,15.15
2019-01-04T01:05:33.187Z,15.12
2019-01-04T01:06:33.276Z,15.12
2019-01-04T01:07:33.169Z,15.08
2019-01-04T01:08:33.154Z,15.11
2019-01-04T01:09:33.148Z,15.12
2019-01-04T01:10:41.877Z,15.14
2019-01-04T01:11:33.123Z,15.12
2019-01-04T01:12:33.211Z,15.14
2019-01-04T01:13:33.113Z,15.08
2019-01-04T01:14:33.096Z,15.18
2019-01-04T01:15:33.086Z,15.19
2019-01-04T01:16:33.070Z,15.11
2019-01-04T01:17:33.061Z,15.11
2019-01-04T01:18:33.225Z,15.15
2019-01-04T01:19:33.037Z,15.11
2019-01-04T01:20:33.030Z,15.17
2019-01-04T01:21:33.021Z,15.12
2019-01-04T01:22:33.005Z,15.15
2019-01-04T01:23:32.994Z,15.17
2019-01-04T01:24:33.091Z,15.12
2019-01-04T01:25:32.972Z,15.08
2019-01-04T01:26:32.965Z,15.15
2019-01-04T01:27:32.953Z,15.14
2019-01-04T01:28:32.940Z,15.17
2019-01-04T01:29:32.929Z,15.07
2019-01-04T01:30:33.025Z,15.17
2019-01-04T01:31:32.908Z,15.11
2019-01-04T01:32:32.901Z,15.22
2019-01-04T01:33:32.889Z,15.19
2019-01-04T01:34:32.877Z,15.08
2019-01-04T01:35:32.862Z,15.17
2019-01-04T01:36:33.032Z,15.18
2019-01-04T01:37:32.843Z,15.10
2019-01-04T01:38:32.840Z,15.14
2019-01-04T01:39:32.822Z,15.11
2019-01-04T01:40:32.820Z,15.11
2019-01-04T01:41:32.800Z,15.17
2019-01-04T01:42:33.098Z,15.12
2019-01-04T01:43:32.782Z,15.11
2019-01-04T01:44:32.765Z,15.11
2019-01-04T01:45:32.757Z,15.14
2019-01-04T01:46:32.751Z,15.08
2019-01-04T01:47:32.736Z,15.12
2019-01-04T01:48:32.836Z,15.17
2019-01-04T01:49:32.711Z,15.12
2019-01-04T01:50:32.699Z,15.10
2019-01-04T01:51:32.696Z,15.08
2019-01-04T01:52:32.679Z,15.14
2019-01-04T01:53:32.670Z,15.12
2019-01-04T01:54:32.758Z,15.10
2019-01-04T01:55:32.656Z,15.07
2019-01-04T01:56:32.652Z,15.14
2019-01-04T01:57:32.630Z,15.14
2019-01-04T01:58:32.616Z,15.10
2019-01-04T01:59:32.603Z,15.12
2019-01-04T02:00:32.771Z,15.14
2019-01-04T02:01:32.583Z,15.08
2019-01-04T02:02:32.575Z,15.18
2019-01-04T02:03:32.563Z,15.17
2019-01-04T02:04:32.548Z,15.05
2019-01-04T02:05:32.541Z,15.15
2019-01-04T02:06:32.641Z,15.11
2019-01-04T02:07:32.521Z,15.18
2019-01-04T02:08:32.505Z,15.10
2019-01-04T02:09:32.499Z,15.17
2019-01-04T02:10:32.488Z,15.12
2019-01-04T02:11:32.475Z,15.15
2019-01-04T02:12:32.573Z,15.11
2019-01-04T02:13:32.453Z,15.14
2019-01-04T02:14:32.445Z,15.08
2019-01-04T02:15:32.431Z,15.07
2019-01-04T02:16:32.422Z,15.15
2019-01-04T02:17:32.407Z,15.12
2019-01-04T02:18:32.573Z,15.14
2019-01-04T02:19:32.389Z,15.12
2019-01-04T02:20:32.379Z,15.17
2019-01-04T02:21:32.370Z,15.08
2019-01-04T02:22:32.354Z,15.08
2019-01-04T02:23:32.347Z,15.05
2019-01-04T02:24:32.588Z,15.05
2019-01-04T02:25:32.325Z,14.97
2019-01-04T02:26:32.314Z,15.12
2019-01-04T02:27:32.305Z,15.07
2019-01-04T02:28:32.288Z,15.07
2019-01-04T02:29:32.279Z,15.15
2019-01-04T02:30:32.376Z,15.02
2019-01-04T02:31:32.260Z,15.08
2019-01-04T02:32:32.248Z,15.10
2019-01-04T02:33:32.236Z,15.15
2019-01-04T02:34:32.227Z,15.15
2019-01-04T02:35:32.218Z,15.12
2019-01-04T02:36:32.552Z,15.12
2019-01-04T02:37:32.193Z,15.07
2019-01-04T02:38:32.191Z,15.08
2019-01-04T02:39:32.259Z,15.14
2019-01-04T02:40:32.162Z,15.15
2019-01-04T02:41:32.153Z,15.08
2019-01-04T02:42:32.252Z,15.07
2019-01-04T02:43:32.131Z,15.11
2019-01-04T02:44:32.122Z,15.14
2019-01-04T02:45:32.110Z,15.14
2019-01-04T02:46:32.101Z,15.15
2019-01-04T02:47:32.086Z,15.14
2019-01-04T02:48:32.184Z,15.08
2019-01-04T02:49:32.065Z,15.08
2019-01-04T02:50:32.059Z,15.15
2019-01-04T02:51:32.052Z,15.07
2019-01-04T02:52:32.033Z,15.11
2019-01-04T02:53:32.027Z,15.12
2019-01-04T02:54:32.180Z,15.15
2019-01-04T02:55:32.014Z,15.14
2019-01-04T02:56:31.991Z,15.11
2019-01-04T02:57:31.980Z,15.15
2019-01-04T02:58:31.969Z,15.07
2019-01-04T02:59:31.960Z,15.12
2019-01-04T03:00:32.126Z,15.10
2019-01-04T03:01:31.936Z,15.22
2019-01-04T03:02:31.925Z,15.14
2019-01-04T03:03:31.914Z,15.12
2019-01-04T03:04:31.905Z,15.10
2019-01-04T03:05:31.898Z,15.11
2019-01-04T03:06:31.981Z,15.12
2019-01-04T03:07:31.871Z,15.10
2019-01-04T03:08:31.861Z,15.10
2019-01-04T03:09:31.849Z,15.18
2019-01-04T03:10:31.856Z,15.18
2019-01-04T03:11:31.829Z,15.18
2019-01-04T03:12:31.992Z,15.15
2019-01-04T03:13:31.819Z,15.11
2019-01-04T03:14:31.795Z,15.15
2019-01-04T03:15:31.784Z,15.17
2019-01-04T03:16:31.773Z,15.10
2019-01-04T03:17:31.766Z,15.19
2019-01-04T03:18:31.973Z,15.10
2019-01-04T03:19:31.758Z,15.08
2019-01-04T03:20:31.733Z,15.15
2019-01-04T03:21:31.721Z,15.15
2019-01-04T03:22:31.710Z,15.18
2019-01-04T03:23:31.700Z,15.12
2019-01-04T03:24:31.861Z,15.11
2019-01-04T03:25:31.676Z,15.14
2019-01-04T03:26:31.669Z,15.10
2019-01-04T03:27:31.656Z,15.18
2019-01-04T03:28:31.642Z,15.15
2019-01-04T03:29:31.635Z,15.17
2019-01-04T03:30:31.929Z,15.10
2019-01-04T03:31:31.613Z,15.15
2019-01-04T03:32:31.607Z,15.12
2019-01-04T03:33:31.594Z,15.14
2019-01-04T03:34:31.580Z,15.15
2019-01-04T03:35:31.569Z,15.08
2019-01-04T03:36:31.770Z,15.15
2019-01-04T03:37:31.549Z,15.07
2019-01-04T03:38:31.533Z,15.07
2019-01-04T03:39:31.524Z,15.15
2019-01-04T03:40:31.511Z,15.14
2019-01-04T03:41:31.507Z,15.11
2019-01-04T03:42:31.614Z,15.17
2019-01-04T03:43:31.485Z,15.14
2019-01-04T03:44:31.473Z,15.08
2019-01-04T03:45:31.460Z,15.18
2019-01-04T03:46:31.453Z,15.19
2019-01-04T03:47:31.436Z,15.08
2019-01-04T03:48:31.526Z,15.07
2019-01-04T03:49:31.417Z,15.08
2019-01-04T03:50:31.410Z,15.11
2019-01-04T03:51:31.398Z,15.11
2019-01-04T03:52:31.387Z,15.07
2019-01-04T03:53:31.375Z,15.07
2019-01-04T03:54:31.539Z,15.12
2019-01-04T03:55:31.354Z,15.00
2019-01-04T03:56:31.354Z,15.08
2019-01-04T03:57:31.338Z,15.04
2019-01-04T03:58:31.320Z,15.05
2019-01-04T03:59:31.315Z,15.04
2019-01-04T04:00:31.405Z,15.05
2019-01-04T04:01:31.293Z,15.07
2019-01-04T04:02:31.281Z,15.04
2019-01-04T04:03:31.267Z,15.07
2019-01-04T04:04:31.256Z,15.08
2019-01-04T04:05:31.242Z,15.04
2019-01-04T04:06:31.340Z,15.08
2019-01-04T04:07:31.226Z,15.08
2019-01-04T04:08:31.242Z,15.07
2019-01-04T04:09:31.203Z,15.07
2019-01-04T04:10:31.194Z,15.07
2019-01-04T04:11:31.181Z,15.05
2019-01-04T04:12:31.334Z,15.07
2019-01-04T04:13:31.172Z,15.08
2019-01-04T04:14:31.149Z,15.02
2019-01-04T04:15:31.139Z,15.07
2019-01-04T04:16:31.128Z,14.99
2019-01-04T04:17:31.116Z,15.11
2019-01-04T04:18:31.284Z,14.94
2019-01-04T04:19:31.095Z,14.96
2019-01-04T04:20:31.087Z,14.99
2019-01-04T04:21:31.074Z,14.93
2019-01-04T04:22:31.062Z,15.04
2019-01-04T04:23:31.050Z,15.05
2019-01-04T04:24:31.139Z,15.02
2019-01-04T04:25:31.030Z,15.05
2019-01-04T04:26:31.024Z,15.04
2019-01-04T04:27:31.008Z,15.05
2019-01-04T04:28:30.999Z,15.07
2019-01-04T04:29:30.991Z,15.04
2019-01-04T04:30:31.231Z,15.07
2019-01-04T04:31:30.968Z,15.10
2019-01-04T04:32:30.954Z,15.02
2019-01-04T04:33:30.945Z,15.05
2019-01-04T04:34:30.934Z,15.08
2019-01-04T04:35:30.924Z,15.07
2019-01-04T04:36:31.010Z,15.04
2019-01-04T04:37:30.900Z,15.02
2019-01-04T04:38:30.889Z,15.00
2019-01-04T04:39:30.879Z,15.12
2019-01-04T04:40:30.900Z,15.04
2019-01-04T04:41:30.865Z,15.00
2019-01-04T04:42:31.052Z,15.12
2019-01-04T04:43:30.844Z,15.12
2019-01-04T04:44:30.824Z,15.11
2019-01-04T04:45:30.819Z,15.10
2019-01-04T04:46:30.802Z,15.11
2019-01-04T04:47:30.791Z,15.10
2019-01-04T04:48:31.050Z,15.17
2019-01-04T04:49:30.773Z,15.08
2019-01-04T04:50:30.760Z,15.08
2019-01-04T04:51:30.754Z,15.08
2019-01-04T04:52:30.741Z,15.15
2019-01-04T04:53:30.735Z,15.15
2019-01-04T04:54:30.813Z,15.08
2019-01-04T04:55:30.706Z,15.05
2019-01-04T04:56:30.700Z,15.02
2019-01-04T04:57:30.684Z,15.07
2019-01-04T04:58:30.678Z,15.10
2019-01-04T04:59:30.661Z,14.99
2019-01-04T05:00:30.817Z,15.07
2019-01-04T05:01:30.641Z,15.08
2019-01-04T05:02:30.630Z,15.07
2019-01-04T05:03:30.624Z,15.04
2019-01-04T05:04:30.613Z,15.02
2019-01-04T05:05:30.600Z,15.04
2019-01-04T05:06:30.784Z,15.07
2019-01-04T05:07:30.593Z,15.02
2019-01-04T05:08:30.565Z,15.02
2019-01-04T05:09:30.558Z,14.97
2019-01-04T05:10:30.547Z,14.92
2019-01-04T05:11:30.535Z,14.92
2019-01-04T05:12:30.798Z,14.93
2019-01-04T05:13:30.518Z,14.96
2019-01-04T05:14:30.515Z,14.92
2019-01-04T05:15:30.499Z,14.94
2019-01-04T05:16:30.514Z,15.04
2019-01-04T05:17:30.469Z,15.00
2019-01-04T05:18:30.628Z,14.97
2019-01-04T05:19:30.454Z,14.97
2019-01-04T05:20:30.438Z,15.07
2019-01-04T05:21:30.428Z,15.02
2019-01-04T05:22:30.418Z,15.00
2019-01-04T05:23:30.405Z,15.07
2019-01-04T05:24:30.518Z,15.02
2019-01-04T05:25:30.382Z,15.08
2019-01-04T05:26:30.376Z,15.00
2019-01-04T05:27:30.371Z,15.04
2019-01-04T05:28:30.374Z,15.10
2019-01-04T05:29:30.342Z,15.02
2019-01-04T05:30:30.505Z,15.08
2019-01-04T05:31:30.337Z,15.08
2019-01-04T05:32:30.345Z,15.02
2019-01-04T05:33:30.300Z,15.08
2019-01-04T05:34:30.327Z,15.11
2019-01-04T05:35:30.275Z,15.14
2019-01-04T05:36:30.466Z,15.15
2019-01-04T05:37:30.254Z,15.11
2019-01-04T05:38:30.242Z,15.18
2019-01-04T05:39:30.234Z,15.26
2019-01-04T05:40:30.223Z,15.26
2019-01-04T05:41:30.213Z,15.23
2019-01-04T05:42:30.294Z,15.19
2019-01-04T05:43:30.193Z,15.19
2019-01-04T05:44:30.183Z,15.25
2019-01-04T05:45:30.169Z,15.25
2019-01-04T05:46:30.158Z,15.33
2019-01-04T05:47:30.148Z,15.29
2019-01-04T05:48:30.248Z,15.27
2019-01-04T05:49:30.126Z,15.29
2019-01-04T05:50:30.118Z,15.33
2019-01-04T05:51:30.117Z,15.41
2019-01-04T05:52:30.108Z,15.37
2019-01-04T05:53:30.084Z,15.43
2019-01-04T05:54:30.471Z,15.50
2019-01-04T05:55:38.832Z,15.37
2019-01-04T05:56:38.807Z,15.47
2019-01-04T05:57:30.040Z,15.39
2019-01-04T05:58:30.030Z,15.44
2019-01-04T05:59:30.015Z,15.47
2019-01-04T06:00:30.169Z,15.48
2019-01-04T06:01:29.991Z,15.51
2019-01-04T06:02:29.986Z,15.47
2019-01-04T06:03:29.976Z,15.48
2019-01-04T06:04:29.964Z,15.62
2019-01-04T06:05:29.952Z,15.57
2019-01-04T06:06:30.063Z,15.54
2019-01-04T06:07:29.931Z,15.63
2019-01-04T06:08:29.925Z,15.66
2019-01-04T06:09:29.908Z,15.67
2019-01-04T06:10:29.897Z,15.72
2019-01-04T06:11:29.899Z,15.78
2019-01-04T06:12:29.973Z,15.78
2019-01-04T06:13:29.866Z,15.78
2019-01-04T06:14:29.859Z,15.78
2019-01-04T06:15:29.843Z,15.78
2019-01-04T06:16:29.846Z,15.80
2019-01-04T06:17:29.820Z,15.80
2019-01-04T06:18:30.116Z,15.87
2019-01-04T06:19:29.801Z,15.84
2019-01-04T06:20:29.789Z,15.75
2019-01-04T06:21:29.776Z,15.80
2019-01-04T06:22:29.767Z,15.92
2019-01-04T06:23:29.757Z,15.85
2019-01-04T06:24:29.843Z,15.84
2019-01-04T06:25:29.741Z,15.94
2019-01-04T06:26:29.727Z,15.91
2019-01-04T06:27:29.715Z,16.02
2019-01-04T06:28:29.706Z,15.91
2019-01-04T06:29:29.691Z,15.91
2019-01-04T06:30:29.795Z,15.94
2019-01-04T06:31:29.680Z,16.00
2019-01-04T06:32:29.664Z,15.92
2019-01-04T06:33:29.653Z,15.96
2019-01-04T06:34:29.643Z,15.96
2019-01-04T06:35:29.627Z,15.96
2019-01-04T06:36:30.017Z,15.98
2019-01-04T06:37:29.607Z,16.02
2019-01-04T06:38:29.593Z,16.00
2019-01-04T06:39:29.582Z,15.99
2019-01-04T06:40:29.574Z,16.02
2019-01-04T06:41:29.565Z,16.13
2019-01-04T06:42:29.653Z,16.12
2019-01-04T06:43:29.541Z,16.17
2019-01-04T06:44:29.531Z,16.17
2019-01-04T06:45:29.520Z,16.13
2019-01-04T06:46:29.510Z,16.21
2019-01-04T06:47:29.503Z,16.18
2019-01-04T06:48:29.584Z,16.29
2019-01-04T06:49:29.477Z,16.13
2019-01-04T06:50:29.466Z,16.25
2019-01-04T06:51:29.456Z,16.25
2019-01-04T06:52:29.445Z,16.32
2019-01-04T06:53:29.433Z,16.36
2019-01-04T06:54:29.588Z,16.32
2019-01-04T06:55:29.410Z,16.32
2019-01-04T06:56:29.403Z,16.36
2019-01-04T06:57:29.388Z,16.40
2019-01-04T06:58:29.386Z,16.37
2019-01-04T06:59:29.368Z,16.41
2019-01-04T07:00:29.453Z,16.41
2019-01-04T07:01:29.346Z,16.49
2019-01-04T07:02:29.337Z,16.47
2019-01-04T07:03:29.327Z,16.51
2019-01-04T07:04:29.338Z,16.54
2019-01-04T07:05:29.307Z,16.61
2019-01-04T07:06:29.461Z,16.66
2019-01-04T07:07:29.286Z,16.64
2019-01-04T07:08:29.267Z,16.65
2019-01-04T07:09:29.263Z,16.66
2019-01-04T07:10:29.251Z,16.74
2019-01-04T07:11:29.244Z,16.79
2019-01-04T07:12:29.344Z,16.77
2019-01-04T07:13:29.223Z,16.77
2019-01-04T07:14:29.208Z,16.84
2019-01-04T07:15:29.196Z,16.95
2019-01-04T07:16:29.185Z,16.98
2019-01-04T07:17:29.181Z,16.91
2019-01-04T07:18:29.373Z,16.95
2019-01-04T07:19:29.153Z,17.05
2019-01-04T07:20:29.142Z,17.05
2019-01-04T07:21:29.130Z,17.14
2019-01-04T07:22:29.123Z,17.20
2019-01-04T07:23:29.126Z,17.28
2019-01-04T07:24:29.198Z,17.32
2019-01-04T07:25:29.086Z,17.37
2019-01-04T07:26:29.077Z,17.37
2019-01-04T07:27:29.069Z,17.42
2019-01-04T07:28:29.063Z,17.44
2019-01-04T07:29:29.046Z,17.35
2019-01-04T07:30:29.138Z,17.50
2019-01-04T07:31:29.026Z,17.49
2019-01-04T07:32:29.015Z,17.49
2019-01-04T07:33:29.038Z,17.47
2019-01-04T07:34:28.993Z,17.57
2019-01-04T07:35:28.984Z,17.63
2019-01-04T07:36:29.178Z,17.63
2019-01-04T07:37:28.962Z,17.71
2019-01-04T07:38:28.949Z,17.76
2019-01-04T07:39:28.959Z,17.76
2019-01-04T07:40:28.938Z,17.86
2019-01-04T07:41:28.915Z,17.86
2019-01-04T07:42:29.019Z,17.75
2019-01-04T07:43:28.896Z,17.86
2019-01-04T07:44:28.885Z,17.84
2019-01-04T07:45:28.872Z,17.84
2019-01-04T07:46:28.863Z,17.88
2019-01-04T07:47:28.853Z,17.88
2019-01-04T07:48:29.266Z,17.88
2019-01-04T07:49:28.831Z,17.94
2019-01-04T07:50:28.816Z,17.98
2019-01-04T07:51:28.805Z,18.02
2019-01-04T07:52:28.799Z,18.06
2019-01-04T07:53:28.786Z,18.06
2019-01-04T07:54:29.060Z,18.06
2019-01-04T07:55:28.765Z,18.08
2019-01-04T07:56:28.755Z,18.06
2019-01-04T07:57:28.746Z,18.12
2019-01-04T07:58:28.735Z,18.00
2019-01-04T07:59:28.726Z,18.09
2019-01-04T08:00:28.872Z,18.03
2019-01-04T08:01:28.701Z,18.09
2019-01-04T08:02:28.687Z,18.18
2019-01-04T08:03:28.678Z,18.11
2019-01-04T08:04:28.670Z,18.13
2019-01-04T08:05:28.657Z,18.28
2019-01-04T08:06:28.882Z,18.28
2019-01-04T08:07:28.632Z,18.36
2019-01-04T08:08:28.621Z,18.28
2019-01-04T08:09:28.616Z,18.39
2019-01-04T08:10:28.617Z,18.49
2019-01-04T08:11:28.604Z,18.49
2019-01-04T08:12:28.684Z,18.60
2019-01-04T08:13:28.569Z,18.71
2019-01-04T08:14:28.557Z,18.67
2019-01-04T08:15:28.549Z,18.73
2019-01-04T08:16:28.545Z,18.81
2019-01-04T08:17:28.526Z,18.89
2019-01-04T08:18:28.615Z,18.91
2019-01-04T08:19:28.505Z,18.97
2019-01-04T08:20:28.502Z,19.15
2019-01-04T08:21:28.483Z,19.15
2019-01-04T08:22:28.483Z,19.22
2019-01-04T08:23:28.463Z,19.24
2019-01-04T08:24:28.557Z,19.27
2019-01-04T08:25:28.443Z,19.34
2019-01-04T08:26:28.434Z,19.38
2019-01-04T08:27:28.422Z,19.37
2019-01-04T08:28:28.416Z,19.48
2019-01-04T08:29:28.398Z,19.48
2019-01-04T08:30:28.708Z,19.59
2019-01-04T08:31:28.378Z,19.64
2019-01-04T08:32:28.369Z,19.74
2019-01-04T08:33:28.354Z,19.71
2019-01-04T08:34:28.352Z,19.87
2019-01-04T08:35:28.344Z,19.89
2019-01-04T08:36:28.419Z,19.93
2019-01-04T08:37:28.314Z,19.93
2019-01-04T08:38:28.301Z,20.03
2019-01-04T08:39:28.290Z,20.08
2019-01-04T08:40:28.289Z,20.04
2019-01-04T08:41:28.272Z,20.00
2019-01-04T08:42:28.429Z,20.02
2019-01-04T08:43:28.266Z,20.00
2019-01-04T08:44:28.238Z,19.99
2019-01-04T08:45:28.232Z,20.03
2019-01-04T08:46:28.224Z,20.11
2019-01-04T08:47:28.204Z,20.10
2019-01-04T08:48:28.293Z,20.15
2019-01-04T08:49:28.184Z,20.17
2019-01-04T08:50:28.174Z,20.24
2019-01-04T08:51:28.160Z,20.21
2019-01-04T08:52:28.152Z,20.40
2019-01-04T08:53:28.140Z,20.46
2019-01-04T08:54:28.295Z,20.36
2019-01-04T08:55:28.119Z,20.46
2019-01-04T08:56:28.105Z,20.44
2019-01-04T08:57:28.091Z,20.55
2019-01-04T08:58:28.085Z,20.49
2019-01-04T08:59:28.071Z,20.60
2019-01-04T09:00:28.291Z,20.55
2019-01-04T09:01:28.049Z,20.49
2019-01-04T09:02:28.040Z,20.53
2019-01-04T09:03:28.027Z,20.55
2019-01-04T09:04:28.021Z,20.49
2019-01-04T09:05:28.018Z,20.46
2019-01-04T09:06:28.116Z,20.42
2019-01-04T09:07:27.984Z,20.46
2019-01-04T09:08:27.977Z,20.37
2019-01-04T09:09:27.966Z,20.34
2019-01-04T09:10:27.958Z,20.44
2019-01-04T09:11:28.003Z,20.39
2019-01-04T09:12:28.040Z,20.44
2019-01-04T09:13:27.921Z,20.39
2019-01-04T09:14:27.914Z,20.39
2019-01-04T09:15:27.903Z,20.36
2019-01-04T09:16:27.893Z,20.34
2019-01-04T09:17:27.917Z,20.42
2019-01-04T09:18:28.113Z,20.50
2019-01-04T09:19:27.867Z,20.53
2019-01-04T09:20:27.868Z,20.52
2019-01-04T09:21:27.837Z,20.60
2019-01-04T09:22:27.848Z,20.66
2019-01-04T09:23:27.813Z,20.68
2019-01-04T09:24:27.904Z,20.67
2019-01-04T09:25:27.794Z,20.63
2019-01-04T09:26:27.782Z,20.77
2019-01-04T09:27:27.769Z,20.80
2019-01-04T09:28:27.756Z,20.80
2019-01-04T09:29:27.750Z,20.77
2019-01-04T09:30:27.938Z,20.73
2019-01-04T09:31:27.725Z,20.73
2019-01-04T09:32:27.718Z,20.75
2019-01-04T09:33:27.703Z,20.82
2019-01-04T09:34:27.714Z,20.78
2019-01-04T09:35:27.685Z,21.01
2019-01-04T09:36:27.860Z,21.01
2019-01-04T09:37:27.686Z,20.90
2019-01-04T09:38:27.649Z,20.98
2019-01-04T09:39:27.647Z,21.08
2019-01-04T09:40:27.628Z,21.20
2019-01-04T09:41:27.620Z,21.17
2019-01-04T09:42:27.987Z,21.22
2019-01-04T09:43:27.596Z,21.23
2019-01-04T09:44:27.587Z,21.28
2019-01-04T09:45:27.580Z,21.32
2019-01-04T09:46:27.574Z,21.45
2019-01-04T09:47:27.553Z,21.53
2019-01-04T09:48:27.841Z,21.54
2019-01-04T09:49:27.535Z,21.68
2019-01-04T09:50:27.519Z,21.77
2019-01-04T09:51:27.512Z,21.78
2019-01-04T09:52:27.509Z,21.85
2019-01-04T09:53:27.488Z,21.78
2019-01-04T09:54:27.583Z,21.89
2019-01-04T09:55:27.464Z,22.00
2019-01-04T09:56:27.453Z,22.01
2019-01-04T09:57:27.444Z,22.06
2019-01-04T09:58:27.443Z,22.06
2019-01-04T09:59:27.425Z,22.19
2019-01-04T10:00:27.510Z,22.33
2019-01-04T10:01:27.399Z,22.37
2019-01-04T10:02:27.391Z,22.51
2019-01-04T10:03:27.379Z,22.58
2019-01-04T10:04:27.375Z,22.73
2019-01-04T10:05:27.355Z,22.86
2019-01-04T10:06:27.520Z,22.93
2019-01-04T10:07:27.336Z,23.02
2019-01-04T10:08:28.124Z,23.16
2019-01-04T10:09:27.319Z,23.18
2019-01-04T10:10:27.313Z,23.33
2019-01-04T10:11:27.291Z,23.39
2019-01-04T10:12:27.618Z,23.48
2019-01-04T10:13:27.274Z,23.66
2019-01-04T10:14:27.260Z,23.69
2019-01-04T10:15:27.251Z,23.76
2019-01-04T10:16:27.242Z,23.86
2019-01-04T10:17:27.259Z,23.96
2019-01-04T10:18:27.324Z,23.95
2019-01-04T10:19:27.203Z,23.99
2019-01-04T10:20:27.198Z,24.07
2019-01-04T10:21:27.220Z,24.16
2019-01-04T10:22:27.174Z,24.14
2019-01-04T10:23:27.169Z,24.13
2019-01-04T10:24:27.482Z,24.11
2019-01-04T10:25:27.143Z,24.00
2019-01-04T10:26:27.148Z,24.01
2019-01-04T10:27:27.117Z,23.94
2019-01-04T10:28:27.117Z,23.81
2019-01-04T10:29:27.095Z,23.70
2019-01-04T10:30:27.260Z,23.70
2019-01-04T10:31:27.603Z,23.74
2019-01-04T10:32:27.088Z,23.77
2019-01-04T10:33:27.052Z,23.89
2019-01-04T10:34:27.041Z,23.96
2019-01-04T10:35:27.032Z,24.09
2019-01-04T10:36:27.114Z,24.24
2019-01-04T10:37:27.039Z,24.31
2019-01-04T10:38:27.026Z,24.46
2019-01-04T10:39:26.987Z,24.58
2019-01-04T10:40:26.988Z,24.61
2019-01-04T10:41:26.968Z,24.65
2019-01-04T10:42:27.052Z,24.74
2019-01-04T10:43:26.946Z,24.79
2019-01-04T10:44:26.936Z,24.85
2019-01-04T10:45:26.921Z,24.99
2019-01-04T10:46:26.910Z,25.15
2019-01-04T10:47:26.900Z,25.30
2019-01-04T10:48:27.165Z,25.30
2019-01-04T10:49:26.883Z,25.36
2019-01-04T10:50:26.868Z,25.51
2019-01-04T10:51:26.857Z,25.49
2019-01-04T10:52:26.864Z,25.44
2019-01-04T10:53:26.838Z,25.55
2019-01-04T10:54:26.934Z,25.61
2019-01-04T10:55:26.825Z,25.54
2019-01-04T10:56:26.804Z,25.63
2019-01-04T10:57:26.794Z,25.70
2019-01-04T10:58:26.799Z,25.74
2019-01-04T10:59:26.773Z,25.81
2019-01-04T11:00:26.892Z,25.86
2019-01-04T11:01:26.753Z,25.88
2019-01-04T11:02:27.580Z,25.93
2019-01-04T11:03:26.730Z,26.06
2019-01-04T11:04:26.756Z,26.19
2019-01-04T11:05:26.706Z,26.42
2019-01-04T11:06:26.886Z,26.44
2019-01-04T11:07:26.686Z,26.49
2019-01-04T11:08:26.675Z,26.59
2019-01-04T11:09:26.666Z,26.59
2019-01-04T11:10:26.656Z,26.59
2019-01-04T11:11:26.644Z,26.74
2019-01-04T11:12:26.837Z,26.89
2019-01-04T11:13:26.620Z,27.10
2019-01-04T11:14:26.611Z,27.28
2019-01-04T11:15:26.599Z,27.55
2019-01-04T11:16:26.593Z,27.72
2019-01-04T11:17:26.577Z,27.81
2019-01-04T11:18:26.667Z,27.90
2019-01-04T11:19:26.558Z,27.95
2019-01-04T11:20:26.545Z,28.08
2019-01-04T11:21:26.537Z,28.19
2019-01-04T11:22:27.770Z,28.23
2019-01-04T11:23:26.513Z,28.46
2019-01-04T11:24:26.703Z,28.60
2019-01-04T11:25:26.496Z,28.75
2019-01-04T11:26:26.486Z,29.06
2019-01-04T11:27:26.474Z,29.20
2019-01-04T11:28:26.462Z,29.37
2019-01-04T11:29:26.458Z,29.55
2019-01-04T11:30:26.546Z,29.71
2019-01-04T11:31:26.428Z,29.84
2019-01-04T11:32:26.417Z,29.83
2019-01-04T11:33:26.406Z,30.13
2019-01-04T11:34:26.398Z,30.24
2019-01-04T11:35:26.384Z,30.55
2019-01-04T11:36:26.477Z,30.58
2019-01-04T11:37:26.370Z,30.67
2019-01-04T11:38:26.353Z,30.80
2019-01-04T11:39:26.347Z,30.89
2019-01-04T11:40:26.336Z,31.08
2019-01-04T11:41:26.333Z,31.15
2019-01-04T11:42:26.505Z,31.47
2019-01-04T11:43:26.302Z,31.54
2019-01-04T11:44:26.291Z,31.69
2019-01-04T11:45:26.282Z,31.90
2019-01-04T11:46:26.274Z,31.95
2019-01-04T11:47:26.266Z,32.17
2019-01-04T11:48:26.522Z,32.29
2019-01-04T11:49:26.239Z,32.38
2019-01-04T11:50:26.229Z,32.54
2019-01-04T11:51:26.216Z,32.75
2019-01-04T11:52:31.110Z,32.68
2019-01-04T11:53:27.291Z,32.81
2019-01-04T11:54:26.187Z,32.73
2019-01-04T11:55:26.175Z,32.85
2019-01-04T11:56:26.165Z,32.82
2019-01-04T11:57:26.154Z,32.97
2019-01-04T11:58:26.144Z,33.00
2019-01-04T11:59:26.272Z,32.93
2019-01-04T12:00:26.122Z,33.12
2019-01-04T12:01:26.113Z,33.13
2019-01-04T12:02:26.470Z,33.22
2019-01-04T12:03:26.090Z,33.23
2019-01-04T12:04:26.113Z,33.28
2019-01-04T12:05:26.283Z,33.36
2019-01-04T12:06:27.263Z,33.44
2019-01-04T12:07:26.048Z,33.42
2019-01-04T12:08:26.042Z,33.51
2019-01-04T12:09:26.048Z,33.45
2019-01-04T12:10:26.019Z,33.39
2019-01-04T12:11:26.115Z,33.23
2019-01-04T12:12:26.007Z,33.26
2019-01-04T12:13:25.995Z,33.09
2019-01-04T12:14:25.986Z,33.13
2019-01-04T12:15:25.967Z,32.98
2019-01-04T12:16:25.959Z,32.93
2019-01-04T12:17:26.190Z,32.83
2019-01-04T12:18:25.938Z,32.71
2019-01-04T12:19:26.070Z,32.78
2019-01-04T12:20:25.916Z,32.78
2019-01-04T12:21:25.904Z,32.61
2019-01-04T12:22:25.895Z,32.48
2019-01-04T12:23:26.017Z,32.45
2019-01-04T12:24:25.874Z,32.42
2019-01-04T12:25:25.864Z,32.39
2019-01-04T12:26:25.852Z,32.51
2019-01-04T12:27:25.850Z,32.54
2019-01-04T12:28:25.834Z,32.67
2019-01-04T12:29:26.000Z,32.73
2019-01-04T12:30:25.821Z,32.73
2019-01-04T12:31:25.801Z,32.78
2019-01-04T12:32:25.789Z,32.73
2019-01-04T12:33:25.781Z,32.71
2019-01-04T12:34:25.771Z,32.63
2019-01-04T12:35:25.943Z,32.46
2019-01-04T12:36:25.754Z,32.35
2019-01-04T12:37:25.740Z,32.30
2019-01-04T12:38:25.728Z,32.22
2019-01-04T12:39:25.769Z,32.12
2019-01-04T12:40:25.710Z,32.01
2019-01-04T12:41:25.897Z,31.95
2019-01-04T12:42:25.690Z,31.89
2019-01-04T12:43:25.675Z,31.77
2019-01-04T12:44:25.666Z,31.63
2019-01-04T12:45:25.705Z,31.55
2019-01-04T12:46:25.647Z,31.37
2019-01-04T12:47:25.733Z,31.28
2019-01-04T12:48:25.647Z,31.20
2019-01-04T12:49:25.617Z,31.14
2019-01-04T12:50:25.604Z,31.07
2019-01-04T12:51:25.602Z,30.99
2019-01-04T12:52:26.099Z,30.85